Terminal Aerodrome Forecast
Issued by NWS

Home | Current Version | Previous Version | Text Only | Print | Product List | Glossary On
Versions: 1 2 3 4 5 6 7 8 9 10 11 12 13 14 15 16 17 18 19
000
FTAK31 PAJN 242214 AAB
TAFAJN
TAF AMD
PAJN 242214Z 2422/2518 12010G18KT P6SM -SHRA FEW015 BKN035 OVC045
      TEMPO 2422/2502 12012KT 5SM -SHRA BR FEW010 BKN025 OVC035
     FM250200 12010KT P6SM -SHRA SCT025 OVC035
     FM250900 09006KT 5SM BR VCSH FEW005 OVC025=

USA.gov is the U.S. government's official web portal to all federal, state and local government web resources and services.